createdAt,value
2022-10-22T00:02:23.699Z,85.07
2022-10-22T00:07:26.523Z,85.17
2022-10-22T00:12:29.266Z,85.62
2022-10-22T00:17:32.018Z,85.70
2022-10-22T00:22:34.860Z,85.68
2022-10-22T00:27:37.748Z,85.87
2022-10-22T00:32:43.065Z,85.96
2022-10-22T00:37:46.090Z,86.07
2022-10-22T00:42:49.163Z,86.06
2022-10-22T00:48:00.763Z,86.45
2022-10-22T00:53:06.678Z,86.65
2022-10-22T00:58:09.598Z,86.49
2022-10-22T01:03:12.511Z,86.58
2022-10-22T01:08:29.106Z,86.66
2022-10-22T01:13:40.029Z,86.78
2022-10-22T01:19:09.717Z,86.76
2022-10-22T01:24:24.916Z,86.87
2022-10-22T01:29:37.586Z,86.82
2022-10-22T01:34:42.181Z,86.95
2022-10-22T01:39:46.656Z,87.41
2022-10-22T01:44:50.317Z,87.25
2022-10-22T01:50:08.377Z,87.22
2022-10-22T01:55:30.313Z,87.15
2022-10-22T02:00:33.085Z,87.33
2022-10-22T02:05:40.264Z,87.52
2022-10-22T02:10:45.114Z,87.85
2022-10-22T02:15:47.897Z,88.09
2022-10-22T02:20:51.543Z,87.71
2022-10-22T02:26:00.526Z,87.75
2022-10-22T02:31:15.088Z,88.16
2022-10-22T02:36:17.896Z,87.93
2022-10-22T02:41:20.624Z,88.24
2022-10-22T02:46:23.819Z,88.23
2022-10-22T02:51:26.581Z,88.14
2022-10-22T02:56:29.436Z,88.55
2022-10-22T03:01:32.221Z,88.47
2022-10-22T03:06:35.200Z,88.53
2022-10-22T03:11:39.168Z,89.10
2022-10-22T03:16:41.930Z,89.32
2022-10-22T03:21:49.878Z,89.83
2022-10-22T03:26:53.104Z,89.76
2022-10-22T03:31:55.951Z,89.90
2022-10-22T03:36:59.657Z,89.78
2022-10-22T03:42:02.422Z,89.90
2022-10-22T03:47:05.354Z,90.12
2022-10-22T03:52:10.715Z,90.03
2022-10-22T03:57:13.614Z,89.83
2022-10-22T04:02:16.393Z,90.30
2022-10-22T04:07:19.164Z,90.43
2022-10-22T04:12:21.881Z,90.39
2022-10-22T04:17:24.909Z,90.08
2022-10-22T04:22:27.646Z,90.93
2022-10-22T04:27:32.084Z,90.41
2022-10-22T04:32:34.830Z,90.82
2022-10-22T04:37:38.092Z,91.05
2022-10-22T04:42:42.323Z,90.87
2022-10-22T04:47:45.196Z,91.11
2022-10-22T04:52:48.024Z,91.12
2022-10-22T04:57:50.800Z,91.28
2022-10-22T05:02:53.538Z,91.46
2022-10-22T05:07:56.626Z,91.47
2022-10-22T05:12:59.365Z,91.32
2022-10-22T05:18:02.197Z,91.29
2022-10-22T05:23:05.453Z,91.11
2022-10-22T05:28:10.569Z,91.12
2022-10-22T05:33:13.310Z,91.79
2022-10-22T05:38:16.886Z,91.77
2022-10-22T05:43:19.643Z,92.04
2022-10-22T05:48:22.691Z,91.89
2022-10-22T05:53:25.506Z,92.02
2022-10-22T05:58:28.318Z,92.09
2022-10-22T06:03:31.979Z,91.92
2022-10-22T06:08:34.778Z,91.97
2022-10-22T06:13:38.596Z,91.68
2022-10-22T06:18:41.574Z,91.75
2022-10-22T06:23:44.392Z,91.68
2022-10-22T06:28:47.590Z,91.72
2022-10-22T06:33:51.837Z,92.05
2022-10-22T06:38:55.444Z,91.87
2022-10-22T06:43:58.453Z,92.00
2022-10-22T06:49:03.248Z,91.64
2022-10-22T06:54:06.317Z,92.07
2022-10-22T06:59:09.051Z,91.97
2022-10-22T07:04:11.890Z,91.75
2022-10-22T07:09:14.782Z,91.64
2022-10-22T07:14:17.746Z,91.56
2022-10-22T07:19:20.541Z,91.55
2022-10-22T07:24:23.705Z,91.72
2022-10-22T07:29:26.591Z,91.72
2022-10-22T07:34:29.497Z,91.73
2022-10-22T07:39:33.733Z,91.78
2022-10-22T07:44:36.586Z,91.66
2022-10-22T07:49:39.402Z,91.70
2022-10-22T07:54:42.145Z,91.59
2022-10-22T07:59:44.902Z,91.62
2022-10-22T08:04:47.685Z,91.45
2022-10-22T08:09:50.491Z,91.48
2022-10-22T08:14:53.457Z,91.41
2022-10-22T08:19:56.210Z,91.40
2022-10-22T08:25:00.501Z,91.45
2022-10-22T08:30:05.253Z,91.21
2022-10-22T08:35:08.172Z,91.23
2022-10-22T08:40:21.131Z,91.49
2022-10-22T08:46:08.622Z,91.41
2022-10-22T08:51:18.612Z,91.32
2022-10-22T08:56:22.605Z,91.31
2022-10-22T09:01:47.069Z,91.28
2022-10-22T09:06:53.638Z,91.33
2022-10-22T09:12:00.198Z,91.13
2022-10-22T09:17:22.022Z,91.11
2022-10-22T09:23:05.493Z,91.07
2022-10-22T09:28:09.892Z,90.93
2022-10-22T09:33:19.177Z,91.07
2022-10-22T09:38:30.376Z,90.99
2022-10-22T09:43:33.438Z,90.53
2022-10-22T09:48:41.069Z,90.16
2022-10-22T09:53:46.626Z,90.12
2022-10-22T09:58:51.293Z,89.24
2022-10-22T10:03:54.142Z,89.13
2022-10-22T10:08:57.336Z,88.67
2022-10-22T10:14:34.666Z,88.77
2022-10-22T10:20:27.931Z,88.18
2022-10-22T10:26:18.337Z,87.95
2022-10-22T10:32:24.373Z,88.30
2022-10-22T10:37:53.778Z,88.02
2022-10-22T10:43:32.459Z,88.10
2022-10-22T10:48:50.263Z,88.38
2022-10-22T10:54:20.229Z,87.91
2022-10-22T10:59:50.366Z,88.02
2022-10-22T11:05:24.009Z,88.21
2022-10-22T11:10:44.301Z,88.26
2022-10-22T11:16:30.337Z,88.11
2022-10-22T11:22:05.064Z,88.15
2022-10-22T11:27:40.055Z,88.32
2022-10-22T11:32:51.898Z,88.64
2022-10-22T11:37:55.938Z,88.52
2022-10-22T11:43:09.276Z,88.41
2022-10-22T11:48:17.339Z,88.44
2022-10-22T11:53:40.649Z,88.41
2022-10-22T11:58:50.795Z,88.40
2022-10-22T12:03:59.702Z,88.35
2022-10-22T12:09:04.899Z,88.52
2022-10-22T12:14:53.770Z,88.53
2022-10-22T12:20:12.016Z,88.22
2022-10-22T12:25:22.198Z,88.42
2022-10-22T12:30:30.580Z,88.27
2022-10-22T12:35:44.017Z,88.05
2022-10-22T12:40:48.767Z,88.23
2022-10-22T12:45:53.578Z,88.31
2022-10-22T12:50:59.388Z,88.50
2022-10-22T12:56:08.272Z,88.52
2022-10-22T13:01:13.561Z,88.54
2022-10-22T13:06:19.980Z,88.57
2022-10-22T13:11:24.093Z,88.54
2022-10-22T13:16:28.046Z,88.48
2022-10-22T13:21:38.126Z,88.77
2022-10-22T13:26:40.915Z,88.52
2022-10-22T13:31:48.926Z,88.25
2022-10-22T13:36:51.736Z,88.34
2022-10-22T13:41:54.795Z,88.65
2022-10-22T13:46:57.553Z,88.49
2022-10-22T13:52:01.175Z,88.41
2022-10-22T13:57:09.283Z,88.20
2022-10-22T14:02:12.273Z,88.33
2022-10-22T14:07:16.549Z,88.39
2022-10-22T14:12:19.315Z,88.50
2022-10-22T14:17:22.037Z,88.39
2022-10-22T14:22:24.850Z,88.41
2022-10-22T14:27:27.576Z,88.28
2022-10-22T14:32:30.623Z,88.70
2022-10-22T14:37:33.653Z,88.59
2022-10-22T14:42:41.732Z,88.60
2022-10-22T14:47:44.902Z,88.75
2022-10-22T14:52:48.549Z,88.80
2022-10-22T14:57:51.388Z,88.65
2022-10-22T15:02:55.927Z,89.08
2022-10-22T15:07:59.513Z,89.34
2022-10-22T15:13:02.283Z,89.22
2022-10-22T15:18:05.326Z,89.21
2022-10-22T15:23:08.128Z,89.53
2022-10-22T15:28:10.917Z,89.49
2022-10-22T15:33:14.889Z,89.75
2022-10-22T15:38:18.003Z,89.92
2022-10-22T15:43:20.792Z,90.05
2022-10-22T15:48:23.663Z,90.33
2022-10-22T15:53:26.404Z,90.18
2022-10-22T15:58:29.359Z,90.43
2022-10-22T16:08:39.939Z,90.62
2022-10-22T16:13:42.685Z,90.74
2022-10-22T16:18:45.469Z,90.83
2022-10-22T16:23:48.311Z,91.00
2022-10-22T16:28:52.326Z,91.23
2022-10-22T16:33:55.497Z,91.39
2022-10-22T16:38:58.566Z,91.34
2022-10-22T16:44:03.636Z,91.37
2022-10-22T16:49:06.900Z,91.60
2022-10-22T16:54:12.471Z,91.94
2022-10-22T16:59:15.509Z,92.16
2022-10-22T17:04:18.294Z,92.32
2022-10-22T17:09:21.555Z,92.39
2022-10-22T17:14:24.380Z,92.60
2022-10-22T17:19:27.457Z,92.76
2022-10-22T17:24:30.208Z,92.92
2022-10-22T17:29:33.102Z,93.02
2022-10-22T17:34:35.861Z,93.20
2022-10-22T17:39:38.799Z,93.22
2022-10-22T17:44:42.283Z,93.56
2022-10-22T17:49:45.024Z,93.82
2022-10-22T17:54:48.702Z,93.73
2022-10-22T17:59:51.420Z,93.69
2022-10-22T18:04:54.282Z,94.06
2022-10-22T18:09:57.428Z,94.31
2022-10-22T18:15:00.197Z,94.30
2022-10-22T18:20:03.205Z,94.44
2022-10-22T18:25:06.635Z,94.54
2022-10-22T18:30:10.191Z,94.57
2022-10-22T18:35:15.517Z,94.79
2022-10-22T18:40:18.266Z,94.94
2022-10-22T18:45:20.977Z,95.03
2022-10-22T18:50:23.858Z,95.29
2022-10-22T18:55:26.863Z,95.63
2022-10-22T19:00:30.514Z,96.07
2022-10-22T19:05:33.284Z,96.09
2022-10-22T19:10:36.048Z,96.33
2022-10-22T19:15:39.165Z,96.63
2022-10-22T19:20:41.950Z,96.68
2022-10-22T19:25:46.476Z,97.57
2022-10-22T19:30:49.442Z,98.74
2022-10-22T19:35:52.216Z,98.40
2022-10-22T19:40:55.017Z,98.57
2022-10-22T19:45:57.772Z,98.90
2022-10-22T19:51:03.120Z,98.50
2022-10-22T19:56:07.666Z,99.15
2022-10-22T20:01:13.280Z,99.26
2022-10-22T20:06:17.227Z,99.56
2022-10-22T20:11:23.222Z,99.61
2022-10-22T20:16:30.697Z,99.83
2022-10-22T20:21:34.984Z,100.00
2022-10-22T20:26:37.860Z,100.00
2022-10-22T20:31:40.758Z,100.00
2022-10-22T20:36:43.499Z,100.00
2022-10-22T20:41:46.213Z,100.00
2022-10-22T20:46:49.024Z,100.00
2022-10-22T20:51:51.802Z,100.00
2022-10-22T20:56:54.551Z,100.00
2022-10-22T21:01:57.300Z,100.00
2022-10-22T21:07:00.032Z,100.00
2022-10-22T21:12:03.729Z,100.00
2022-10-22T21:17:08.189Z,100.00
2022-10-22T21:22:10.962Z,100.00
2022-10-22T21:27:13.692Z,100.00
2022-10-22T21:32:16.428Z,100.00
2022-10-22T21:37:19.426Z,100.00
2022-10-22T21:42:22.178Z,100.00
2022-10-22T21:47:25.006Z,100.00
2022-10-22T21:52:27.907Z,100.00
2022-10-22T21:57:30.710Z,100.00
2022-10-22T22:02:33.483Z,100.00
2022-10-22T22:07:36.277Z,100.00
2022-10-22T22:12:39.204Z,100.00
2022-10-22T22:17:42.146Z,100.00
2022-10-22T22:22:44.939Z,100.00
2022-10-22T22:27:47.698Z,100.00
2022-10-22T22:32:50.463Z,100.00
2022-10-22T22:37:53.190Z,100.00
2022-10-22T22:42:56.007Z,100.00
2022-10-22T22:47:58.705Z,100.00
2022-10-22T22:53:01.520Z,100.00
2022-10-22T22:58:04.309Z,100.00
2022-10-22T23:03:07.061Z,100.00
2022-10-22T23:08:09.897Z,100.00
2022-10-22T23:13:12.678Z,100.00
2022-10-22T23:18:15.435Z,100.00
2022-10-22T23:23:19.998Z,100.00
2022-10-22T23:28:24.179Z,100.00
2022-10-22T23:33:26.940Z,100.00
2022-10-22T23:38:29.681Z,100.00
2022-10-22T23:43:36.066Z,100.00
2022-10-22T23:48:39.487Z,100.00
2022-10-22T23:53:43.029Z,100.00
2022-10-22T23:58:48.276Z,100.00
